Arnold, Michigan
Current Conditions -  °F | °C
As of 3:17 AM on Monday 24 Nov 2014 (Local Time) from KSAW Reporting Station
Light Rain Light Rain  
Wind Chill: 34°   Ceiling: 500
Heat Index: 38°   Visibility: 0.5mi
Dew Point: 37°   Wind: 5mph
Humidity: 97%   Direction: 10°N
Pressure: 29.07"   Gusts: NA
Location:  46.05°N, 87.49°W
Report Text: KSAW 240817Z AUTO 01004KT 1/2SM -RA OVC005 03/03 A2907 RMK AO2 P0001 T00310027
Loading
Personal Weather Stations






























Interactive Weather Map New forecast layout! Learn more

10-Day Weather Forecast

Advertisements
Track Severe Weather on mobile